sensor_id;sensor_type;location;lat;lon;timestamp;P1;durP1;ratioP1;P2;durP2;ratioP2
6378;SDS011;3222;48.858;10.128;2023-07-31T00:02:00;7.73;;;1.57;;
6378;SDS011;3222;48.858;10.128;2023-07-31T00:04:26;2.40;;;1.50;;
6378;SDS011;3222;48.858;10.128;2023-07-31T00:06:52;8.13;;;1.60;;
6378;SDS011;3222;48.858;10.128;2023-07-31T00:09:17;3.13;;;1.60;;
6378;SDS011;3222;48.858;10.128;2023-07-31T00:11:43;4.83;;;1.40;;
6378;SDS011;3222;48.858;10.128;2023-07-31T00:14:08;4.63;;;1.53;;
6378;SDS011;3222;48.858;10.128;2023-07-31T00:16:34;2.40;;;1.27;;
6378;SDS011;3222;48.858;10.128;2023-07-31T00:19:00;2.93;;;1.40;;
6378;SDS011;3222;48.858;10.128;2023-07-31T00:21:26;11.50;;;2.13;;
6378;SDS011;3222;48.858;10.128;2023-07-31T00:23:51;3.43;;;1.67;;
6378;SDS011;3222;48.858;10.128;2023-07-31T00:26:17;7.80;;;1.80;;
6378;SDS011;3222;48.858;10.128;2023-07-31T00:28:42;4.83;;;2.20;;
6378;SDS011;3222;48.858;10.128;2023-07-31T00:31:08;7.30;;;1.93;;
6378;SDS011;3222;48.858;10.128;2023-07-31T00:33:34;5.70;;;1.90;;
6378;SDS011;3222;48.858;10.128;2023-07-31T00:36:02;3.43;;;1.83;;
6378;SDS011;3222;48.858;10.128;2023-07-31T00:38:28;2.37;;;1.87;;
6378;SDS011;3222;48.858;10.128;2023-07-31T00:40:53;7.83;;;2.23;;
6378;SDS011;3222;48.858;10.128;2023-07-31T00:43:19;3.13;;;1.60;;
6378;SDS011;3222;48.858;10.128;2023-07-31T00:45:45;2.97;;;1.57;;
6378;SDS011;3222;48.858;10.128;2023-07-31T00:48:10;4.73;;;1.70;;
6378;SDS011;3222;48.858;10.128;2023-07-31T00:50:36;4.23;;;1.70;;
6378;SDS011;3222;48.858;10.128;2023-07-31T00:53:03;2.53;;;1.53;;
6378;SDS011;3222;48.858;10.128;2023-07-31T00:55:29;3.53;;;1.70;;
6378;SDS011;3222;48.858;10.128;2023-07-31T00:57:55;5.60;;;1.80;;
6378;SDS011;3222;48.858;10.128;2023-07-31T01:00:21;3.73;;;1.47;;
6378;SDS011;3222;48.858;10.128;2023-07-31T01:02:48;2.13;;;1.50;;
6378;SDS011;3222;48.858;10.128;2023-07-31T01:05:15;3.83;;;1.57;;
6378;SDS011;3222;48.858;10.128;2023-07-31T01:07:45;3.07;;;1.93;;
6378;SDS011;3222;48.858;10.128;2023-07-31T01:10:23;1.83;;;1.30;;
6378;SDS011;3222;48.858;10.128;2023-07-31T01:12:54;2.30;;;1.60;;
6378;SDS011;3222;48.858;10.128;2023-07-31T01:15:21;1.57;;;1.40;;
6378;SDS011;3222;48.858;10.128;2023-07-31T01:17:47;4.50;;;1.60;;
6378;SDS011;3222;48.858;10.128;2023-07-31T01:20:22;2.73;;;1.50;;
6378;SDS011;3222;48.858;10.128;2023-07-31T01:23:07;5.17;;;1.67;;
6378;SDS011;3222;48.858;10.128;2023-07-31T01:28:23;2.53;;;2.07;;
6378;SDS011;3222;48.858;10.128;2023-07-31T01:30:54;3.83;;;1.67;;
6378;SDS011;3222;48.858;10.128;2023-07-31T01:33:23;5.33;;;1.83;;
6378;SDS011;3222;48.858;10.128;2023-07-31T01:41:13;2.07;;;1.50;;
6378;SDS011;3222;48.858;10.128;2023-07-31T01:43:41;2.53;;;1.53;;
6378;SDS011;3222;48.858;10.128;2023-07-31T01:46:07;3.50;;;1.80;;
6378;SDS011;3222;48.858;10.128;2023-07-31T01:48:33;2.70;;;1.60;;
6378;SDS011;3222;48.858;10.128;2023-07-31T01:51:00;1.93;;;1.30;;
6378;SDS011;3222;48.858;10.128;2023-07-31T01:53:27;1.63;;;1.40;;
6378;SDS011;3222;48.858;10.128;2023-07-31T01:55:52;2.43;;;1.80;;
6378;SDS011;3222;48.858;10.128;2023-07-31T01:58:18;2.83;;;1.53;;
6378;SDS011;3222;48.858;10.128;2023-07-31T02:00:44;2.30;;;1.43;;
6378;SDS011;3222;48.858;10.128;2023-07-31T02:03:09;3.53;;;1.63;;
6378;SDS011;3222;48.858;10.128;2023-07-31T02:05:35;2.40;;;1.50;;
6378;SDS011;3222;48.858;10.128;2023-07-31T02:08:01;5.00;;;1.60;;
6378;SDS011;3222;48.858;10.128;2023-07-31T02:10:28;4.90;;;1.87;;
6378;SDS011;3222;48.858;10.128;2023-07-31T02:12:53;3.43;;;1.37;;
6378;SDS011;3222;48.858;10.128;2023-07-31T02:15:20;1.60;;;1.30;;
6378;SDS011;3222;48.858;10.128;2023-07-31T02:17:46;3.83;;;1.30;;
6378;SDS011;3222;48.858;10.128;2023-07-31T02:20:11;1.50;;;1.40;;
6378;SDS011;3222;48.858;10.128;2023-07-31T02:22:37;4.87;;;2.10;;
6378;SDS011;3222;48.858;10.128;2023-07-31T02:25:03;4.17;;;1.60;;
6378;SDS011;3222;48.858;10.128;2023-07-31T02:27:29;4.60;;;1.60;;
6378;SDS011;3222;48.858;10.128;2023-07-31T02:29:54;5.23;;;1.40;;
6378;SDS011;3222;48.858;10.128;2023-07-31T02:32:20;5.10;;;1.87;;
6378;SDS011;3222;48.858;10.128;2023-07-31T02:34:46;2.57;;;1.33;;
6378;SDS011;3222;48.858;10.128;2023-07-31T02:37:12;12.53;;;2.23;;
6378;SDS011;3222;48.858;10.128;2023-07-31T02:39:38;2.67;;;1.63;;
6378;SDS011;3222;48.858;10.128;2023-07-31T02:42:04;3.03;;;1.67;;
6378;SDS011;3222;48.858;10.128;2023-07-31T02:44:30;4.13;;;1.50;;
6378;SDS011;3222;48.858;10.128;2023-07-31T02:46:56;4.03;;;1.50;;
6378;SDS011;3222;48.858;10.128;2023-07-31T02:49:22;3.43;;;1.43;;
6378;SDS011;3222;48.858;10.128;2023-07-31T02:51:47;1.77;;;1.30;;
6378;SDS011;3222;48.858;10.128;2023-07-31T02:54:13;4.30;;;1.60;;
6378;SDS011;3222;48.858;10.128;2023-07-31T02:56:38;4.67;;;1.50;;
6378;SDS011;3222;48.858;10.128;2023-07-31T02:59:04;2.60;;;1.50;;
6378;SDS011;3222;48.858;10.128;2023-07-31T03:01:30;3.13;;;1.50;;
6378;SDS011;3222;48.858;10.128;2023-07-31T03:03:56;3.70;;;1.40;;
6378;SDS011;3222;48.858;10.128;2023-07-31T03:06:22;4.87;;;1.53;;
6378;SDS011;3222;48.858;10.128;2023-07-31T03:08:47;2.23;;;1.70;;
6378;SDS011;3222;48.858;10.128;2023-07-31T03:11:14;2.33;;;1.73;;
6378;SDS011;3222;48.858;10.128;2023-07-31T03:13:39;3.13;;;1.80;;
6378;SDS011;3222;48.858;10.128;2023-07-31T03:16:05;3.37;;;1.50;;
6378;SDS011;3222;48.858;10.128;2023-07-31T03:18:30;3.23;;;1.73;;
6378;SDS011;3222;48.858;10.128;2023-07-31T03:20:56;2.33;;;1.50;;
6378;SDS011;3222;48.858;10.128;2023-07-31T03:23:22;3.07;;;1.80;;
6378;SDS011;3222;48.858;10.128;2023-07-31T03:28:27;2.27;;;1.50;;
6378;SDS011;3222;48.858;10.128;2023-07-31T03:30:52;2.90;;;1.57;;
6378;SDS011;3222;48.858;10.128;2023-07-31T03:33:18;2.70;;;1.60;;
6378;SDS011;3222;48.858;10.128;2023-07-31T03:35:44;7.33;;;1.77;;
6378;SDS011;3222;48.858;10.128;2023-07-31T03:38:10;4.90;;;1.60;;
6378;SDS011;3222;48.858;10.128;2023-07-31T03:40:36;3.70;;;1.67;;
6378;SDS011;3222;48.858;10.128;2023-07-31T03:43:01;4.13;;;1.70;;
6378;SDS011;3222;48.858;10.128;2023-07-31T03:45:27;3.23;;;1.80;;
6378;SDS011;3222;48.858;10.128;2023-07-31T03:47:53;4.43;;;1.80;;
6378;SDS011;3222;48.858;10.128;2023-07-31T03:50:19;4.87;;;2.20;;
6378;SDS011;3222;48.858;10.128;2023-07-31T03:52:45;14.97;;;2.40;;
6378;SDS011;3222;48.858;10.128;2023-07-31T03:55:11;5.13;;;2.10;;
6378;SDS011;3222;48.858;10.128;2023-07-31T03:57:37;3.60;;;2.27;;
6378;SDS011;3222;48.858;10.128;2023-07-31T04:00:02;2.00;;;1.67;;
6378;SDS011;3222;48.858;10.128;2023-07-31T04:02:37;4.10;;;2.27;;
6378;SDS011;3222;48.858;10.128;2023-07-31T04:05:03;2.37;;;1.73;;
6378;SDS011;3222;48.858;10.128;2023-07-31T04:07:28;3.57;;;1.57;;
6378;SDS011;3222;48.858;10.128;2023-07-31T04:09:54;3.40;;;1.70;;
6378;SDS011;3222;48.858;10.128;2023-07-31T04:12:20;3.63;;;1.47;;
6378;SDS011;3222;48.858;10.128;2023-07-31T04:14:45;3.33;;;2.10;;
6378;SDS011;3222;48.858;10.128;2023-07-31T04:17:11;5.53;;;1.57;;
6378;SDS011;3222;48.858;10.128;2023-07-31T04:19:37;2.50;;;1.63;;
6378;SDS011;3222;48.858;10.128;2023-07-31T04:22:03;3.97;;;1.77;;
6378;SDS011;3222;48.858;10.128;2023-07-31T04:24:29;2.37;;;1.73;;
6378;SDS011;3222;48.858;10.128;2023-07-31T04:26:55;3.43;;;1.60;;
6378;SDS011;3222;48.858;10.128;2023-07-31T04:29:21;4.23;;;1.90;;
6378;SDS011;3222;48.858;10.128;2023-07-31T04:31:47;2.20;;;1.53;;
6378;SDS011;3222;48.858;10.128;2023-07-31T04:34:13;2.43;;;1.50;;
6378;SDS011;3222;48.858;10.128;2023-07-31T04:36:39;3.27;;;1.50;;
6378;SDS011;3222;48.858;10.128;2023-07-31T04:39:04;2.43;;;1.67;;
6378;SDS011;3222;48.858;10.128;2023-07-31T04:41:30;3.67;;;1.77;;
6378;SDS011;3222;48.858;10.128;2023-07-31T04:43:56;2.17;;;1.77;;
6378;SDS011;3222;48.858;10.128;2023-07-31T04:46:22;3.30;;;1.60;;
6378;SDS011;3222;48.858;10.128;2023-07-31T04:48:47;3.13;;;1.67;;
6378;SDS011;3222;48.858;10.128;2023-07-31T04:51:13;2.60;;;1.67;;
6378;SDS011;3222;48.858;10.128;2023-07-31T04:53:38;3.57;;;1.63;;
6378;SDS011;3222;48.858;10.128;2023-07-31T04:56:04;2.30;;;1.97;;
6378;SDS011;3222;48.858;10.128;2023-07-31T04:58:30;4.30;;;2.17;;
6378;SDS011;3222;48.858;10.128;2023-07-31T05:00:55;2.53;;;1.97;;
6378;SDS011;3222;48.858;10.128;2023-07-31T05:03:21;4.27;;;2.13;;
6378;SDS011;3222;48.858;10.128;2023-07-31T05:05:47;4.43;;;2.23;;
6378;SDS011;3222;48.858;10.128;2023-07-31T05:08:12;3.63;;;2.20;;
6378;SDS011;3222;48.858;10.128;2023-07-31T05:10:38;5.23;;;2.40;;
6378;SDS011;3222;48.858;10.128;2023-07-31T05:13:04;4.90;;;2.93;;
6378;SDS011;3222;48.858;10.128;2023-07-31T05:15:30;5.00;;;2.80;;
6378;SDS011;3222;48.858;10.128;2023-07-31T05:17:56;5.00;;;2.70;;
6378;SDS011;3222;48.858;10.128;2023-07-31T05:20:21;6.13;;;2.70;;
6378;SDS011;3222;48.858;10.128;2023-07-31T05:22:47;4.03;;;2.43;;
6378;SDS011;3222;48.858;10.128;2023-07-31T05:25:13;4.47;;;2.53;;
6378;SDS011;3222;48.858;10.128;2023-07-31T05:27:39;2.40;;;2.20;;
6378;SDS011;3222;48.858;10.128;2023-07-31T05:30:04;6.37;;;1.97;;
6378;SDS011;3222;48.858;10.128;2023-07-31T05:32:31;6.17;;;3.27;;
6378;SDS011;3222;48.858;10.128;2023-07-31T05:34:57;4.50;;;1.97;;
6378;SDS011;3222;48.858;10.128;2023-07-31T05:37:22;2.77;;;2.17;;
6378;SDS011;3222;48.858;10.128;2023-07-31T05:39:48;4.03;;;2.23;;
6378;SDS011;3222;48.858;10.128;2023-07-31T05:42:13;5.13;;;2.40;;
6378;SDS011;3222;48.858;10.128;2023-07-31T05:44:39;2.93;;;2.07;;
6378;SDS011;3222;48.858;10.128;2023-07-31T05:47:05;4.70;;;2.20;;
6378;SDS011;3222;48.858;10.128;2023-07-31T05:49:31;4.97;;;2.13;;
6378;SDS011;3222;48.858;10.128;2023-07-31T05:51:56;3.57;;;2.40;;
6378;SDS011;3222;48.858;10.128;2023-07-31T05:54:22;2.47;;;2.10;;
6378;SDS011;3222;48.858;10.128;2023-07-31T05:56:48;2.73;;;1.70;;
6378;SDS011;3222;48.858;10.128;2023-07-31T05:59:13;5.93;;;1.97;;
6378;SDS011;3222;48.858;10.128;2023-07-31T06:01:39;3.57;;;2.23;;
6378;SDS011;3222;48.858;10.128;2023-07-31T06:04:05;6.60;;;2.67;;
6378;SDS011;3222;48.858;10.128;2023-07-31T06:06:30;2.43;;;2.10;;
6378;SDS011;3222;48.858;10.128;2023-07-31T06:08:56;2.70;;;2.20;;
6378;SDS011;3222;48.858;10.128;2023-07-31T06:11:21;2.10;;;1.90;;
6378;SDS011;3222;48.858;10.128;2023-07-31T06:13:48;3.27;;;1.97;;
6378;SDS011;3222;48.858;10.128;2023-07-31T06:16:14;4.33;;;2.73;;
6378;SDS011;3222;48.858;10.128;2023-07-31T06:18:40;6.70;;;3.63;;
6378;SDS011;3222;48.858;10.128;2023-07-31T06:21:07;7.07;;;3.43;;
6378;SDS011;3222;48.858;10.128;2023-07-31T06:23:33;6.43;;;3.93;;
6378;SDS011;3222;48.858;10.128;2023-07-31T06:25:58;7.50;;;3.13;;
6378;SDS011;3222;48.858;10.128;2023-07-31T06:28:31;5.67;;;3.13;;
6378;SDS011;3222;48.858;10.128;2023-07-31T06:30:57;5.83;;;2.83;;
6378;SDS011;3222;48.858;10.128;2023-07-31T06:33:23;4.67;;;2.60;;
6378;SDS011;3222;48.858;10.128;2023-07-31T06:35:49;3.10;;;1.90;;
6378;SDS011;3222;48.858;10.128;2023-07-31T06:38:15;4.27;;;2.10;;
6378;SDS011;3222;48.858;10.128;2023-07-31T06:40:43;2.80;;;2.20;;
6378;SDS011;3222;48.858;10.128;2023-07-31T06:43:09;2.77;;;2.00;;
6378;SDS011;3222;48.858;10.128;2023-07-31T06:45:35;2.70;;;2.00;;
6378;SDS011;3222;48.858;10.128;2023-07-31T06:48:01;4.40;;;2.20;;
6378;SDS011;3222;48.858;10.128;2023-07-31T06:50:29;4.67;;;2.10;;
6378;SDS011;3222;48.858;10.128;2023-07-31T06:52:58;3.23;;;2.00;;
6378;SDS011;3222;48.858;10.128;2023-07-31T06:55:24;1.93;;;1.83;;
6378;SDS011;3222;48.858;10.128;2023-07-31T06:57:52;3.70;;;2.10;;
6378;SDS011;3222;48.858;10.128;2023-07-31T07:00:19;3.83;;;1.97;;
6378;SDS011;3222;48.858;10.128;2023-07-31T07:02:46;2.57;;;2.10;;
6378;SDS011;3222;48.858;10.128;2023-07-31T07:05:12;3.17;;;2.07;;
6378;SDS011;3222;48.858;10.128;2023-07-31T07:07:38;3.10;;;1.90;;
6378;SDS011;3222;48.858;10.128;2023-07-31T07:10:04;4.17;;;2.07;;
6378;SDS011;3222;48.858;10.128;2023-07-31T07:12:30;2.47;;;2.00;;
6378;SDS011;3222;48.858;10.128;2023-07-31T07:14:57;2.27;;;1.90;;
6378;SDS011;3222;48.858;10.128;2023-07-31T07:17:23;2.10;;;1.87;;
6378;SDS011;3222;48.858;10.128;2023-07-31T07:19:49;2.97;;;1.90;;
6378;SDS011;3222;48.858;10.128;2023-07-31T07:22:15;7.60;;;2.10;;
6378;SDS011;3222;48.858;10.128;2023-07-31T07:24:41;3.53;;;1.70;;
6378;SDS011;3222;48.858;10.128;2023-07-31T07:27:07;4.43;;;2.17;;
6378;SDS011;3222;48.858;10.128;2023-07-31T07:29:38;4.43;;;1.80;;
6378;SDS011;3222;48.858;10.128;2023-07-31T07:32:04;3.10;;;2.00;;
6378;SDS011;3222;48.858;10.128;2023-07-31T07:34:30;2.73;;;2.10;;
6378;SDS011;3222;48.858;10.128;2023-07-31T07:36:55;2.53;;;1.60;;
6378;SDS011;3222;48.858;10.128;2023-07-31T07:39:21;3.03;;;1.87;;
6378;SDS011;3222;48.858;10.128;2023-07-31T07:41:47;2.10;;;1.90;;
6378;SDS011;3222;48.858;10.128;2023-07-31T07:44:13;3.40;;;1.97;;
6378;SDS011;3222;48.858;10.128;2023-07-31T07:46:39;6.20;;;2.70;;
6378;SDS011;3222;48.858;10.128;2023-07-31T07:49:05;5.87;;;2.80;;
6378;SDS011;3222;48.858;10.128;2023-07-31T07:51:30;3.90;;;2.47;;
6378;SDS011;3222;48.858;10.128;2023-07-31T07:54:00;4.00;;;2.47;;
6378;SDS011;3222;48.858;10.128;2023-07-31T07:56:26;6.20;;;2.60;;
6378;SDS011;3222;48.858;10.128;2023-07-31T07:58:52;4.03;;;2.43;;
6378;SDS011;3222;48.858;10.128;2023-07-31T08:01:18;5.93;;;2.27;;
6378;SDS011;3222;48.858;10.128;2023-07-31T08:03:45;7.13;;;2.37;;
6378;SDS011;3222;48.858;10.128;2023-07-31T08:06:11;2.97;;;2.00;;
6378;SDS011;3222;48.858;10.128;2023-07-31T08:08:37;3.83;;;2.33;;
6378;SDS011;3222;48.858;10.128;2023-07-31T08:11:03;3.27;;;1.90;;
6378;SDS011;3222;48.858;10.128;2023-07-31T08:13:29;3.77;;;2.20;;
6378;SDS011;3222;48.858;10.128;2023-07-31T08:15:55;3.97;;;2.53;;
6378;SDS011;3222;48.858;10.128;2023-07-31T08:18:20;4.13;;;2.40;;
6378;SDS011;3222;48.858;10.128;2023-07-31T08:20:46;4.03;;;2.20;;
6378;SDS011;3222;48.858;10.128;2023-07-31T08:23:12;3.57;;;2.40;;
6378;SDS011;3222;48.858;10.128;2023-07-31T08:25:38;4.87;;;2.30;;
6378;SDS011;3222;48.858;10.128;2023-07-31T08:28:04;4.53;;;2.60;;
6378;SDS011;3222;48.858;10.128;2023-07-31T08:30:30;4.13;;;2.30;;
6378;SDS011;3222;48.858;10.128;2023-07-31T08:32:56;5.70;;;2.20;;
6378;SDS011;3222;48.858;10.128;2023-07-31T08:35:22;3.93;;;2.57;;
6378;SDS011;3222;48.858;10.128;2023-07-31T08:37:52;4.77;;;3.00;;
6378;SDS011;3222;48.858;10.128;2023-07-31T08:40:17;3.70;;;2.87;;
6378;SDS011;3222;48.858;10.128;2023-07-31T08:42:43;6.27;;;2.40;;
6378;SDS011;3222;48.858;10.128;2023-07-31T08:45:12;4.63;;;2.67;;
6378;SDS011;3222;48.858;10.128;2023-07-31T08:47:39;4.57;;;2.40;;
6378;SDS011;3222;48.858;10.128;2023-07-31T08:50:07;4.27;;;2.50;;
6378;SDS011;3222;48.858;10.128;2023-07-31T08:52:33;4.00;;;2.43;;
6378;SDS011;3222;48.858;10.128;2023-07-31T08:54:59;4.27;;;2.37;;
6378;SDS011;3222;48.858;10.128;2023-07-31T08:57:24;7.00;;;2.80;;
6378;SDS011;3222;48.858;10.128;2023-07-31T08:59:50;3.57;;;2.60;;
6378;SDS011;3222;48.858;10.128;2023-07-31T09:02:17;4.47;;;2.57;;
6378;SDS011;3222;48.858;10.128;2023-07-31T09:04:44;5.20;;;2.77;;
6378;SDS011;3222;48.858;10.128;2023-07-31T09:07:10;4.33;;;2.50;;
6378;SDS011;3222;48.858;10.128;2023-07-31T09:09:38;4.23;;;2.50;;
6378;SDS011;3222;48.858;10.128;2023-07-31T09:12:04;5.93;;;2.80;;
6378;SDS011;3222;48.858;10.128;2023-07-31T09:14:31;4.30;;;2.53;;
6378;SDS011;3222;48.858;10.128;2023-07-31T09:16:58;6.60;;;2.60;;
6378;SDS011;3222;48.858;10.128;2023-07-31T09:19:34;3.23;;;2.10;;
6378;SDS011;3222;48.858;10.128;2023-07-31T09:22:05;3.03;;;2.50;;
6378;SDS011;3222;48.858;10.128;2023-07-31T09:24:32;7.63;;;3.20;;
6378;SDS011;3222;48.858;10.128;2023-07-31T09:26:59;5.27;;;2.60;;
6378;SDS011;3222;48.858;10.128;2023-07-31T09:29:27;5.37;;;2.90;;
6378;SDS011;3222;48.858;10.128;2023-07-31T09:31:54;3.40;;;2.73;;
6378;SDS011;3222;48.858;10.128;2023-07-31T09:34:27;5.57;;;2.50;;
6378;SDS011;3222;48.858;10.128;2023-07-31T09:36:57;6.20;;;2.73;;
6378;SDS011;3222;48.858;10.128;2023-07-31T09:39:26;5.30;;;2.70;;
6378;SDS011;3222;48.858;10.128;2023-07-31T09:41:55;5.33;;;3.17;;
6378;SDS011;3222;48.858;10.128;2023-07-31T09:44:30;6.30;;;2.80;;
6378;SDS011;3222;48.858;10.128;2023-07-31T09:47:03;7.27;;;3.57;;
6378;SDS011;3222;48.858;10.128;2023-07-31T09:49:29;5.67;;;2.90;;
6378;SDS011;3222;48.858;10.128;2023-07-31T09:51:54;11.17;;;3.60;;
6378;SDS011;3222;48.858;10.128;2023-07-31T09:54:20;6.50;;;2.53;;
6378;SDS011;3222;48.858;10.128;2023-07-31T09:56:47;4.67;;;2.63;;
6378;SDS011;3222;48.858;10.128;2023-07-31T09:59:15;7.07;;;3.03;;
6378;SDS011;3222;48.858;10.128;2023-07-31T10:01:42;6.60;;;3.07;;
6378;SDS011;3222;48.858;10.128;2023-07-31T10:04:10;5.10;;;2.70;;
6378;SDS011;3222;48.858;10.128;2023-07-31T10:06:36;8.07;;;3.30;;
6378;SDS011;3222;48.858;10.128;2023-07-31T10:09:07;4.87;;;2.73;;
6378;SDS011;3222;48.858;10.128;2023-07-31T10:11:43;5.30;;;3.07;;
6378;SDS011;3222;48.858;10.128;2023-07-31T10:14:17;4.10;;;2.33;;
6378;SDS011;3222;48.858;10.128;2023-07-31T10:16:45;4.47;;;2.43;;
6378;SDS011;3222;48.858;10.128;2023-07-31T10:19:12;5.50;;;3.37;;
6378;SDS011;3222;48.858;10.128;2023-07-31T10:21:37;6.50;;;3.30;;
6378;SDS011;3222;48.858;10.128;2023-07-31T10:24:04;4.23;;;2.67;;
6378;SDS011;3222;48.858;10.128;2023-07-31T10:26:30;7.23;;;2.63;;
6378;SDS011;3222;48.858;10.128;2023-07-31T10:28:58;5.80;;;2.77;;
6378;SDS011;3222;48.858;10.128;2023-07-31T10:31:24;5.43;;;2.77;;
6378;SDS011;3222;48.858;10.128;2023-07-31T10:33:51;4.70;;;2.80;;
6378;SDS011;3222;48.858;10.128;2023-07-31T10:36:18;5.33;;;3.00;;
6378;SDS011;3222;48.858;10.128;2023-07-31T10:38:45;5.47;;;2.93;;
6378;SDS011;3222;48.858;10.128;2023-07-31T10:41:14;5.87;;;2.47;;
6378;SDS011;3222;48.858;10.128;2023-07-31T10:43:39;4.53;;;2.93;;
6378;SDS011;3222;48.858;10.128;2023-07-31T10:46:09;4.47;;;2.57;;
6378;SDS011;3222;48.858;10.128;2023-07-31T10:48:36;5.03;;;2.77;;
6378;SDS011;3222;48.858;10.128;2023-07-31T10:51:09;5.50;;;2.60;;
6378;SDS011;3222;48.858;10.128;2023-07-31T10:53:37;5.77;;;2.57;;
6378;SDS011;3222;48.858;10.128;2023-07-31T10:56:09;6.50;;;2.57;;
6378;SDS011;3222;48.858;10.128;2023-07-31T10:58:40;3.90;;;2.40;;
6378;SDS011;3222;48.858;10.128;2023-07-31T11:01:09;9.27;;;2.70;;
6378;SDS011;3222;48.858;10.128;2023-07-31T11:03:42;5.40;;;2.60;;
6378;SDS011;3222;48.858;10.128;2023-07-31T11:06:09;5.87;;;2.63;;
6378;SDS011;3222;48.858;10.128;2023-07-31T11:08:38;3.93;;;2.70;;
6378;SDS011;3222;48.858;10.128;2023-07-31T11:11:11;4.27;;;2.57;;
6378;SDS011;3222;48.858;10.128;2023-07-31T11:13:41;4.00;;;2.57;;
6378;SDS011;3222;48.858;10.128;2023-07-31T11:16:07;4.93;;;2.40;;
6378;SDS011;3222;48.858;10.128;2023-07-31T11:18:34;4.00;;;2.30;;
6378;SDS011;3222;48.858;10.128;2023-07-31T11:21:00;4.77;;;3.10;;
6378;SDS011;3222;48.858;10.128;2023-07-31T11:23:26;4.20;;;2.30;;
6378;SDS011;3222;48.858;10.128;2023-07-31T11:25:51;4.40;;;2.37;;
6378;SDS011;3222;48.858;10.128;2023-07-31T11:28:17;4.93;;;2.90;;
6378;SDS011;3222;48.858;10.128;2023-07-31T11:30:45;3.73;;;2.43;;
6378;SDS011;3222;48.858;10.128;2023-07-31T11:33:11;4.73;;;2.50;;
6378;SDS011;3222;48.858;10.128;2023-07-31T11:35:45;3.67;;;2.67;;
6378;SDS011;3222;48.858;10.128;2023-07-31T11:38:29;6.27;;;2.57;;
6378;SDS011;3222;48.858;10.128;2023-07-31T11:40:57;3.37;;;2.33;;
6378;SDS011;3222;48.858;10.128;2023-07-31T11:43:24;4.07;;;2.37;;
6378;SDS011;3222;48.858;10.128;2023-07-31T11:45:52;6.30;;;2.83;;
6378;SDS011;3222;48.858;10.128;2023-07-31T11:48:22;10.10;;;3.07;;
6378;SDS011;3222;48.858;10.128;2023-07-31T11:50:53;8.67;;;2.67;;
6378;SDS011;3222;48.858;10.128;2023-07-31T11:53:28;3.63;;;2.60;;
6378;SDS011;3222;48.858;10.128;2023-07-31T11:55:54;3.83;;;2.30;;
6378;SDS011;3222;48.858;10.128;2023-07-31T11:58:22;4.00;;;2.57;;
6378;SDS011;3222;48.858;10.128;2023-07-31T12:00:48;5.50;;;2.30;;
6378;SDS011;3222;48.858;10.128;2023-07-31T12:03:14;7.17;;;2.47;;
6378;SDS011;3222;48.858;10.128;2023-07-31T12:05:40;4.67;;;2.80;;
6378;SDS011;3222;48.858;10.128;2023-07-31T12:08:09;5.63;;;2.87;;
6378;SDS011;3222;48.858;10.128;2023-07-31T12:10:37;7.87;;;3.60;;
6378;SDS011;3222;48.858;10.128;2023-07-31T12:13:07;7.33;;;3.17;;
6378;SDS011;3222;48.858;10.128;2023-07-31T12:15:41;4.87;;;3.50;;
6378;SDS011;3222;48.858;10.128;2023-07-31T12:18:09;4.27;;;2.93;;
6378;SDS011;3222;48.858;10.128;2023-07-31T12:23:17;6.07;;;3.77;;
6378;SDS011;3222;48.858;10.128;2023-07-31T12:28:41;6.63;;;3.47;;
6378;SDS011;3222;48.858;10.128;2023-07-31T12:31:09;6.67;;;3.60;;
6378;SDS011;3222;48.858;10.128;2023-07-31T12:33:36;4.33;;;3.17;;
6378;SDS011;3222;48.858;10.128;2023-07-31T12:36:04;4.40;;;3.10;;
6378;SDS011;3222;48.858;10.128;2023-07-31T12:38:40;3.17;;;2.53;;
6378;SDS011;3222;48.858;10.128;2023-07-31T12:41:06;5.30;;;3.10;;
6378;SDS011;3222;48.858;10.128;2023-07-31T12:43:36;9.37;;;3.40;;
6378;SDS011;3222;48.858;10.128;2023-07-31T12:46:02;5.77;;;3.40;;
6378;SDS011;3222;48.858;10.128;2023-07-31T12:48:29;7.00;;;3.03;;
6378;SDS011;3222;48.858;10.128;2023-07-31T12:50:54;5.27;;;2.93;;
6378;SDS011;3222;48.858;10.128;2023-07-31T12:53:20;6.00;;;2.97;;
6378;SDS011;3222;48.858;10.128;2023-07-31T12:55:46;3.40;;;2.70;;
6378;SDS011;3222;48.858;10.128;2023-07-31T12:58:12;5.37;;;2.50;;
6378;SDS011;3222;48.858;10.128;2023-07-31T13:00:38;5.47;;;2.80;;
6378;SDS011;3222;48.858;10.128;2023-07-31T13:03:03;3.63;;;2.47;;
6378;SDS011;3222;48.858;10.128;2023-07-31T13:05:29;6.93;;;2.57;;
6378;SDS011;3222;48.858;10.128;2023-07-31T13:07:55;5.20;;;2.83;;
6378;SDS011;3222;48.858;10.128;2023-07-31T13:10:22;4.80;;;2.90;;
6378;SDS011;3222;48.858;10.128;2023-07-31T13:12:48;4.67;;;3.10;;
6378;SDS011;3222;48.858;10.128;2023-07-31T13:15:14;3.63;;;2.57;;
6378;SDS011;3222;48.858;10.128;2023-07-31T13:17:40;3.30;;;2.50;;
6378;SDS011;3222;48.858;10.128;2023-07-31T13:20:05;4.07;;;2.50;;
6378;SDS011;3222;48.858;10.128;2023-07-31T13:22:32;4.73;;;2.70;;
6378;SDS011;3222;48.858;10.128;2023-07-31T13:24:57;2.43;;;2.23;;
6378;SDS011;3222;48.858;10.128;2023-07-31T13:27:23;2.57;;;2.37;;
6378;SDS011;3222;48.858;10.128;2023-07-31T13:29:49;3.17;;;2.67;;
6378;SDS011;3222;48.858;10.128;2023-07-31T13:32:18;6.40;;;3.90;;
6378;SDS011;3222;48.858;10.128;2023-07-31T13:34:45;7.72;;;4.50;;
6378;SDS011;3222;48.858;10.128;2023-07-31T13:37:12;6.23;;;3.27;;
6378;SDS011;3222;48.858;10.128;2023-07-31T13:39:38;4.37;;;2.87;;
6378;SDS011;3222;48.858;10.128;2023-07-31T13:42:04;4.73;;;3.00;;
6378;SDS011;3222;48.858;10.128;2023-07-31T13:44:36;5.37;;;2.30;;
6378;SDS011;3222;48.858;10.128;2023-07-31T13:47:06;3.73;;;2.60;;
6378;SDS011;3222;48.858;10.128;2023-07-31T13:49:32;4.10;;;2.27;;
6378;SDS011;3222;48.858;10.128;2023-07-31T13:51:58;3.10;;;2.65;;
6378;SDS011;3222;48.858;10.128;2023-07-31T13:54:23;4.03;;;2.27;;
6378;SDS011;3222;48.858;10.128;2023-07-31T13:56:50;2.80;;;2.47;;
6378;SDS011;3222;48.858;10.128;2023-07-31T13:59:16;5.72;;;2.60;;
6378;SDS011;3222;48.858;10.128;2023-07-31T14:01:43;4.50;;;2.80;;
6378;SDS011;3222;48.858;10.128;2023-07-31T14:04:09;3.63;;;2.50;;
6378;SDS011;3222;48.858;10.128;2023-07-31T14:06:35;5.17;;;2.70;;
6378;SDS011;3222;48.858;10.128;2023-07-31T14:09:01;3.90;;;2.60;;
6378;SDS011;3222;48.858;10.128;2023-07-31T14:11:27;3.25;;;2.55;;
6378;SDS011;3222;48.858;10.128;2023-07-31T14:13:53;5.43;;;2.60;;
6378;SDS011;3222;48.858;10.128;2023-07-31T14:16:21;5.05;;;2.90;;
6378;SDS011;3222;48.858;10.128;2023-07-31T14:18:47;2.60;;;2.40;;
6378;SDS011;3222;48.858;10.128;2023-07-31T14:21:13;4.33;;;3.10;;
6378;SDS011;3222;48.858;10.128;2023-07-31T14:23:39;7.20;;;3.20;;
6378;SDS011;3222;48.858;10.128;2023-07-31T14:26:05;6.28;;;3.30;;
6378;SDS011;3222;48.858;10.128;2023-07-31T14:28:30;3.40;;;3.10;;
6378;SDS011;3222;48.858;10.128;2023-07-31T14:30:56;5.90;;;3.17;;
6378;SDS011;3222;48.858;10.128;2023-07-31T14:33:21;6.20;;;3.03;;
6378;SDS011;3222;48.858;10.128;2023-07-31T14:35:47;4.03;;;2.80;;
6378;SDS011;3222;48.858;10.128;2023-07-31T14:38:13;3.57;;;2.90;;
6378;SDS011;3222;48.858;10.128;2023-07-31T14:40:38;5.47;;;3.17;;
6378;SDS011;3222;48.858;10.128;2023-07-31T14:43:04;3.38;;;2.65;;
6378;SDS011;3222;48.858;10.128;2023-07-31T14:45:30;3.00;;;2.70;;
6378;SDS011;3222;48.858;10.128;2023-07-31T14:47:55;4.30;;;2.57;;
6378;SDS011;3222;48.858;10.128;2023-07-31T14:50:21;3.55;;;2.80;;
6378;SDS011;3222;48.858;10.128;2023-07-31T14:52:48;5.10;;;3.00;;
6378;SDS011;3222;48.858;10.128;2023-07-31T14:55:14;4.63;;;3.22;;
6378;SDS011;3222;48.858;10.128;2023-07-31T14:57:39;5.07;;;3.10;;
6378;SDS011;3222;48.858;10.128;2023-07-31T15:00:05;4.27;;;3.10;;
6378;SDS011;3222;48.858;10.128;2023-07-31T15:02:36;4.47;;;2.93;;
6378;SDS011;3222;48.858;10.128;2023-07-31T15:05:02;4.13;;;2.53;;
6378;SDS011;3222;48.858;10.128;2023-07-31T15:07:28;6.10;;;2.60;;
6378;SDS011;3222;48.858;10.128;2023-07-31T15:09:54;3.83;;;2.50;;
6378;SDS011;3222;48.858;10.128;2023-07-31T15:12:20;4.80;;;2.75;;
6378;SDS011;3222;48.858;10.128;2023-07-31T15:14:45;3.00;;;2.63;;